Time;durP1;ratioP1;P1;durP2;ratioP2;P2;SDS_P1;SDS_P2;PMS_P1;PMS_P2;Temp;Humidity;BMP_temperature;BMP_pressure;BME280_temperature;BME280_humidity;BME280_pressure;Samples;Min_cycle;Max_cycle;Signal;HPM_P1;HPM_P2
2024/01/08 00:01:04;;;;;;;1.50;1.40;;;-1.50;1.00;;;;;;5035631;28;20349;-83
2024/01/08 00:03:30;;;;;;;1.60;1.40;;;-1.50;1.00;;;;;;5035522;28;20304;-83
2024/01/08 00:05:56;;;;;;;2.17;1.40;;;-1.50;1.00;;;;;;5034149;28;20200;-83
2024/01/08 00:08:21;;;;;;;1.83;1.43;;;-1.50;1.00;;;;;;5035768;28;20652;-83
2024/01/08 00:10:47;;;;;;;1.53;1.43;;;-1.50;1.00;;;;;;5034055;28;20179;-83
2024/01/08 00:13:12;;;;;;;4.00;1.37;;;-1.60;99.90;;;;;;5035392;28;20223;-83
2024/01/08 00:15:38;;;;;;;1.40;1.30;;;-1.50;99.90;;;;;;5034367;28;20280;-83
2024/01/08 00:18:04;;;;;;;1.60;1.33;;;-1.50;99.90;;;;;;5034144;28;20176;-83
2024/01/08 00:20:29;;;;;;;2.27;1.50;;;-1.50;99.90;;;;;;5035381;28;20565;-83
2024/01/08 00:22:55;;;;;;;1.60;1.30;;;-1.60;1.00;;;;;;5034058;28;20654;-83
2024/01/08 00:25:24;;;;;;;1.70;1.37;;;-1.60;1.00;;;;;;5034155;28;20196;-83
2024/01/08 00:27:50;;;;;;;1.23;1.13;;;-1.50;99.90;;;;;;5033127;28;20173;-83
2024/01/08 00:30:16;;;;;;;1.50;1.40;;;-1.50;99.90;;;;;;5031584;28;20213;-83
2024/01/08 00:32:42;;;;;;;1.30;1.20;;;-1.50;99.90;;;;;;5035050;28;20178;-83
2024/01/08 00:35:08;;;;;;;1.30;1.20;;;-1.50;1.00;;;;;;5035099;28;20218;-83
2024/01/08 00:37:43;;;;;;;1.60;1.50;;;-1.60;1.00;;;;;;5033919;28;20186;-83
2024/01/08 00:40:10;;;;;;;2.20;1.70;;;-1.50;1.00;;;;;;5035032;28;20210;-83
2024/01/08 00:42:37;;;;;;;2.57;1.50;;;-1.60;88.10;;;;;;5034996;28;20176;-83
2024/01/08 00:45:03;;;;;;;2.00;1.50;;;-1.60;1.00;;;;;;5034724;28;20250;-83
2024/01/08 00:47:29;;;;;;;1.93;1.63;;;-1.50;1.00;;;;;;5034771;28;20177;-83
2024/01/08 00:49:54;;;;;;;2.47;1.50;;;-1.50;1.00;;;;;;5033422;28;20181;-83
2024/01/08 00:52:20;;;;;;;3.70;1.77;;;-1.60;1.00;;;;;;5034927;28;20200;-83
2024/01/08 00:54:46;;;;;;;1.87;1.60;;;-1.50;1.00;;;;;;5034779;28;20176;-84
2024/01/08 00:57:11;;;;;;;2.20;1.30;;;-1.50;99.90;;;;;;5034750;28;20187;-83
2024/01/08 00:59:37;;;;;;;2.43;1.43;;;-1.60;99.90;;;;;;5033391;28;20200;-83
2024/01/08 01:02:03;;;;;;;2.63;1.90;;;-1.60;99.90;;;;;;5033225;28;20583;-83
2024/01/08 01:04:29;;;;;;;2.40;1.77;;;-1.60;99.90;;;;;;5034082;28;20636;-83
2024/01/08 01:06:54;;;;;;;1.87;1.67;;;-1.50;99.90;;;;;;5032650;28;20308;-83
2024/01/08 01:09:20;;;;;;;2.03;1.60;;;-1.60;1.00;;;;;;5033146;28;20182;-85
2024/01/08 01:11:45;;;;;;;2.30;1.77;;;-1.60;1.00;;;;;;5034458;28;20183;-83
2024/01/08 01:14:11;;;;;;;1.93;1.70;;;-1.50;1.00;;;;;;5033205;28;20198;-83
2024/01/08 01:16:36;;;;;;;1.67;1.50;;;-1.60;99.90;;;;;;5034136;28;20568;-83
2024/01/08 01:19:02;;;;;;;2.00;1.60;;;-1.60;1.00;;;;;;5034019;28;20214;-83
2024/01/08 01:21:28;;;;;;;1.87;1.60;;;-1.50;77.00;;;;;;5034304;28;20228;-83
2024/01/08 01:23:54;;;;;;;1.60;1.50;;;-1.50;1.00;;;;;;5032999;28;20171;-83
2024/01/08 01:26:20;;;;;;;2.33;1.80;;;-1.50;1.00;;;;;;5032847;28;20269;-83
2024/01/08 01:28:46;;;;;;;2.43;1.70;;;-1.60;1.00;;;;;;5034119;28;20257;-83
2024/01/08 01:31:12;;;;;;;2.00;1.67;;;-1.70;1.00;;;;;;5033768;28;20258;-83
2024/01/08 01:33:38;;;;;;;1.70;1.60;;;-1.70;99.90;;;;;;5032836;28;20180;-83
2024/01/08 01:36:05;;;;;;;2.50;1.80;;;-1.70;99.90;;;;;;5034143;28;20668;-83
2024/01/08 01:38:31;;;;;;;2.20;1.77;;;-1.70;86.80;;;;;;5032799;28;20174;-85
2024/01/08 01:40:57;;;;;;;2.77;1.90;;;-1.70;99.90;;;;;;5033663;28;20197;-85
2024/01/08 01:43:28;;;;;;;2.37;1.63;;;-1.70;29.40;;;;;;5032590;28;20615;-85
2024/01/08 01:45:56;;;;;;;1.80;1.47;;;-1.70;41.70;;;;;;5033667;28;20587;-83
2024/01/08 01:48:23;;;;;;;2.17;1.83;;;-1.70;1.00;;;;;;5033944;28;20175;-83
2024/01/08 01:50:49;;;;;;;2.50;1.97;;;-1.70;1.00;;;;;;5033486;28;20167;-83
2024/01/08 01:53:15;;;;;;;2.10;1.70;;;-1.70;1.00;;;;;;5033693;28;20175;-82
2024/01/08 01:55:42;;;;;;;2.53;1.63;;;-1.70;1.00;;;;;;5032331;28;20187;-83
2024/01/08 01:58:11;;;;;;;2.70;1.70;;;-1.70;1.00;;;;;;5033514;28;20656;-83
2024/01/08 02:00:36;;;;;;;1.90;1.63;;;-1.70;1.00;;;;;;5031878;28;20281;-83
2024/01/08 02:03:04;;;;;;;2.47;1.80;;;-1.70;99.90;;;;;;5033499;28;20203;-83
2024/01/08 02:05:30;;;;;;;2.33;2.00;;;-1.70;1.00;;;;;;5032048;28;20196;-85
2024/01/08 02:07:56;;;;;;;3.07;1.80;;;-1.70;15.90;;;;;;5032062;28;20174;-83
2024/01/08 02:10:22;;;;;;;3.00;1.90;;;-1.70;98.10;;;;;;5033192;28;20639;-82
2024/01/08 02:12:48;;;;;;;2.13;1.73;;;-1.80;99.90;;;;;;5031994;28;20237;-84
2024/01/08 02:15:13;;;;;;;2.17;1.90;;;-1.80;99.90;;;;;;5030879;28;20190;-83
2024/01/08 02:17:39;;;;;;;3.47;1.97;;;-1.80;99.90;;;;;;5033404;28;20170;-83
2024/01/08 02:20:05;;;;;;;2.53;1.90;;;-1.80;1.00;;;;;;5033002;28;20208;-83
2024/01/08 02:22:31;;;;;;;3.17;1.90;;;-1.80;99.90;;;;;;5031775;28;20269;-83
2024/01/08 02:24:56;;;;;;;2.00;1.77;;;-1.80;1.00;;;;;;5031749;28;20285;-83
2024/01/08 02:27:22;;;;;;;2.73;1.90;;;-1.80;1.00;;;;;;5033231;28;20186;-85
2024/01/08 02:29:48;;;;;;;2.47;1.90;;;-1.80;1.00;;;;;;5032750;28;20190;-83
2024/01/08 02:32:13;;;;;;;2.70;2.00;;;-1.80;1.00;;;;;;5031510;28;20175;-82
2024/01/08 02:34:39;;;;;;;2.50;2.07;;;-1.80;1.00;;;;;;5031443;28;20174;-83
2024/01/08 02:37:05;;;;;;;2.23;1.93;;;-1.80;1.00;;;;;;5032933;28;20179;-83
2024/01/08 02:39:30;;;;;;;3.50;2.00;;;-1.70;1.00;;;;;;5031542;28;20210;-85
2024/01/08 02:41:56;;;;;;;2.33;2.03;;;-1.70;1.00;;;;;;5032609;28;20652;-82
2024/01/08 02:44:21;;;;;;;3.03;2.10;;;-1.70;1.00;;;;;;5031308;28;20178;-83
2024/01/08 02:46:47;;;;;;;3.00;2.00;;;-1.70;1.00;;;;;;5031491;28;20213;-83
2024/01/08 02:49:12;;;;;;;2.27;1.87;;;-1.70;1.00;;;;;;5031410;28;20192;-82
2024/01/08 02:51:38;;;;;;;2.83;2.07;;;-1.80;2.60;;;;;;5032520;28;20240;-83
2024/01/08 02:54:04;;;;;;;2.57;2.00;;;-1.80;37.40;;;;;;5032654;28;20170;-83
2024/01/08 02:56:29;;;;;;;3.03;2.13;;;-1.70;1.00;;;;;;5032404;28;20256;-83
2024/01/08 02:58:55;;;;;;;2.47;1.73;;;-1.80;1.00;;;;;;5032185;28;20301;-83
2024/01/08 03:01:20;;;;;;;4.20;2.07;;;-1.80;1.00;;;;;;5031140;28;20216;-83
2024/01/08 03:03:46;;;;;;;3.20;1.90;;;-1.80;1.00;;;;;;5031191;28;20176;-83
2024/01/08 03:06:11;;;;;;;2.67;1.93;;;-1.80;1.00;;;;;;5032267;28;20218;-83
2024/01/08 03:08:37;;;;;;;3.00;2.10;;;-1.80;1.00;;;;;;5031129;28;20171;-81
2024/01/08 03:11:02;;;;;;;3.23;2.07;;;-1.80;99.90;;;;;;5032135;28;20173;-83
2024/01/08 03:13:28;;;;;;;2.00;1.77;;;-1.80;99.90;;;;;;5031010;28;20179;-83
2024/01/08 03:15:54;;;;;;;3.30;2.00;;;-1.90;99.90;;;;;;5032061;28;20194;-83
2024/01/08 03:18:19;;;;;;;2.00;1.80;;;-1.80;99.90;;;;;;5032331;28;20171;-83
2024/01/08 03:20:45;;;;;;;2.40;1.63;;;-1.80;99.90;;;;;;5032171;28;20573;-83
2024/01/08 03:23:10;;;;;;;1.97;1.60;;;-1.90;1.00;;;;;;5032022;28;20218;-83
2024/01/08 03:25:36;;;;;;;2.53;1.93;;;-1.80;1.00;;;;;;5030905;28;20283;-83
2024/01/08 03:28:02;;;;;;;2.00;1.73;;;-1.80;1.00;;;;;;5030414;28;20171;-85
2024/01/08 03:30:28;;;;;;;2.13;1.90;;;-1.80;1.00;;;;;;5030580;28;20170;-83
2024/01/08 03:32:54;;;;;;;2.77;2.00;;;-1.80;1.00;;;;;;5031003;28;20266;-83
2024/01/08 03:35:19;;;;;;;2.17;1.83;;;-1.90;1.00;;;;;;5030826;28;20637;-83
2024/01/08 03:37:45;;;;;;;2.90;1.83;;;-1.90;99.90;;;;;;5031924;28;20646;-83
2024/01/08 03:40:11;;;;;;;2.80;2.10;;;-1.90;1.00;;;;;;5030620;28;20237;-83
2024/01/08 03:42:37;;;;;;;3.17;2.23;;;-1.90;1.00;;;;;;5031852;28;20174;-83
2024/01/08 03:45:02;;;;;;;2.53;1.90;;;-1.90;99.90;;;;;;5031939;28;20202;-83
2024/01/08 03:47:28;;;;;;;2.93;2.23;;;-1.90;1.00;;;;;;5030477;28;20197;-83
2024/01/08 03:49:55;;;;;;;2.70;2.00;;;-2.00;1.00;;;;;;5030490;28;20178;-80
2024/01/08 03:52:22;;;;;;;2.40;2.20;;;-1.90;25.40;;;;;;5030651;28;20240;-85
2024/01/08 03:54:48;;;;;;;2.60;2.40;;;-1.90;23.70;;;;;;5030598;28;20187;-83
2024/01/08 03:57:14;;;;;;;3.60;2.33;;;-1.90;99.90;;;;;;5030379;28;20185;-83
2024/01/08 03:59:41;;;;;;;3.70;2.37;;;-1.90;99.90;;;;;;5031847;28;20210;-83
2024/01/08 04:02:06;;;;;;;4.80;2.80;;;-1.90;99.90;;;;;;5030513;28;20202;-83
2024/01/08 04:04:32;;;;;;;4.50;2.70;;;-2.00;99.90;;;;;;5031698;28;20174;-83
2024/01/08 04:06:57;;;;;;;2.83;2.43;;;-2.10;99.90;;;;;;5030556;28;20183;-83
2024/01/08 04:09:23;;;;;;;3.90;2.37;;;-2.10;1.00;;;;;;5030466;28;20193;-84
2024/01/08 04:11:49;;;;;;;2.83;2.43;;;-2.00;1.00;;;;;;5030145;28;20179;-83
2024/01/08 04:14:14;;;;;;;3.03;2.40;;;-2.00;58.90;;;;;;5031809;28;20223;-83
2024/01/08 04:16:40;;;;;;;3.23;2.47;;;-2.20;1.00;;;;;;5031667;28;20220;-83
2024/01/08 04:19:06;;;;;;;4.10;2.90;;;-2.20;99.90;;;;;;5031546;28;20579;-82
2024/01/08 04:21:32;;;;;;;3.80;2.73;;;-2.10;1.00;;;;;;5031550;28;20652;-83
2024/01/08 04:23:58;;;;;;;3.20;2.37;;;-2.10;1.00;;;;;;5031407;28;20401;-83
2024/01/08 04:26:25;;;;;;;4.30;2.70;;;-2.20;1.00;;;;;;5030240;28;20198;-84
2024/01/08 04:28:51;;;;;;;3.63;2.77;;;-2.20;1.00;;;;;;5031558;28;20182;-83
2024/01/08 04:31:20;;;;;;;4.00;2.70;;;-2.30;99.90;;;;;;5031472;28;20179;-83
2024/01/08 04:33:47;;;;;;;4.33;2.77;;;-2.40;99.90;;;;;;5030143;28;20179;-83
2024/01/08 04:36:13;;;;;;;5.00;2.80;;;-2.40;1.00;;;;;;5031754;28;20199;-83
2024/01/08 04:38:39;;;;;;;3.83;2.63;;;-2.30;21.00;;;;;;5031133;28;20197;-83
2024/01/08 04:41:05;;;;;;;3.60;2.43;;;-2.40;1.00;;;;;;5034772;28;20571;-82
2024/01/08 04:43:30;;;;;;;3.70;2.70;;;-2.40;1.00;;;;;;5034911;28;20269;-81
2024/01/08 04:45:56;;;;;;;3.27;2.00;;;-2.40;99.90;;;;;;5092660;22;20249;-82
2024/01/08 04:48:21;;;;;;;3.30;2.50;;;-2.30;1.00;;;;;;5035436;28;20203;-82
2024/01/08 04:50:47;;;;;;;3.80;2.43;;;-2.50;1.00;;;;;;5035992;28;20174;-82
2024/01/08 04:53:12;;;;;;;3.47;2.40;;;-2.50;1.00;;;;;;5035383;28;20178;-82
2024/01/08 04:55:39;;;;;;;3.03;2.60;;;-2.60;1.00;;;;;;5035062;28;20289;-81
2024/01/08 04:58:06;;;;;;;3.90;2.20;;;-2.60;1.00;;;;;;5035021;28;20658;-83
2024/01/08 05:00:31;;;;;;;3.10;1.97;;;-2.70;1.00;;;;;;5035158;28;20214;-82
2024/01/08 05:02:57;;;;;;;3.40;2.47;;;-2.70;1.00;;;;;;5036306;28;20185;-82
2024/01/08 05:05:22;;;;;;;4.50;2.83;;;-2.70;1.00;;;;;;5034907;28;20285;-82
2024/01/08 05:07:48;;;;;;;3.47;2.30;;;-2.70;1.00;;;;;;5034636;28;20220;-82
2024/01/08 05:10:13;;;;;;;3.20;2.50;;;-2.70;1.00;;;;;;5035975;28;20228;-82
2024/01/08 05:12:39;;;;;;;2.13;1.53;;;-2.80;99.90;;;;;;5036172;28;20174;-82
2024/01/08 05:15:05;;;;;;;2.63;1.70;;;-2.90;99.90;;;;;;5035952;28;20568;-81
2024/01/08 05:17:30;;;;;;;3.33;2.30;;;-2.90;99.90;;;;;;5034498;28;20174;-82
2024/01/08 05:19:56;;;;;;;5.47;2.20;;;-3.00;99.90;;;;;;5035797;28;20205;-82
2024/01/08 05:22:21;;;;;;;3.67;2.43;;;-3.00;99.90;;;;;;5034568;28;20618;-81
2024/01/08 05:24:47;;;;;;;3.10;2.30;;;-3.10;99.90;;;;;;5034799;28;20170;-82
2024/01/08 05:27:12;;;;;;;4.33;2.53;;;-3.10;99.90;;;;;;5035617;28;20187;-82
2024/01/08 05:29:38;;;;;;;3.10;2.27;;;-3.20;1.00;;;;;;5034625;28;20642;-82
2024/01/08 05:32:04;;;;;;;3.87;2.50;;;-3.30;6.50;;;;;;5034312;28;20178;-81
2024/01/08 05:34:29;;;;;;;4.60;2.60;;;-3.30;1.00;;;;;;5035832;28;20720;-84
2024/01/08 05:36:56;;;;;;;3.37;2.30;;;-3.30;58.60;;;;;;5035268;28;20288;-82
2024/01/08 05:39:21;;;;;;;3.47;2.33;;;-3.20;1.00;;;;;;5035249;28;20201;-79
2024/01/08 05:41:47;;;;;;;3.97;2.20;;;-3.30;1.00;;;;;;5035514;28;20421;-81
2024/01/08 05:44:13;;;;;;;4.53;2.63;;;-3.30;1.00;;;;;;5036010;28;20228;-81
2024/01/08 05:46:42;;;;;;;2.53;1.83;;;-3.30;1.00;;;;;;5035168;28;20216;-81
2024/01/08 05:49:08;;;;;;;3.80;2.30;;;-3.20;7.60;;;;;;5033981;28;20185;-82
2024/01/08 05:51:34;;;;;;;4.47;2.57;;;-3.30;1.00;;;;;;5034183;28;20420;-82
2024/01/08 05:53:59;;;;;;;4.43;2.57;;;-3.30;79.50;;;;;;5035130;28;20187;-81
2024/01/08 05:56:25;;;;;;;3.87;2.80;;;-3.40;24.40;;;;;;5034039;28;20213;-82
2024/01/08 05:58:50;;;;;;;3.43;2.33;;;-3.50;99.90;;;;;;5034025;28;20202;-82
2024/01/08 06:01:17;;;;;;;5.60;2.63;;;-3.50;99.90;;;;;;5033653;28;20178;-82
2024/01/08 06:03:44;;;;;;;3.57;2.63;;;-3.40;99.90;;;;;;5033950;28;20181;-82
2024/01/08 06:06:12;;;;;;;4.90;2.33;;;-3.40;99.90;;;;;;5035237;28;20209;-82
2024/01/08 06:08:40;;;;;;;4.37;2.60;;;-3.40;94.20;;;;;;5034672;28;20229;-82
2024/01/08 06:11:06;;;;;;;3.90;2.70;;;-3.50;99.90;;;;;;5033704;28;20712;-81
2024/01/08 06:13:31;;;;;;;3.67;2.67;;;-3.50;99.90;;;;;;5034331;28;20413;-81
2024/01/08 06:15:57;;;;;;;3.20;2.70;;;-3.50;99.90;;;;;;5033141;28;20195;-84
2024/01/08 06:18:24;;;;;;;4.80;2.63;;;-3.50;99.90;;;;;;5031903;28;20178;-86
2024/01/08 06:20:49;;;;;;;3.47;2.63;;;-3.50;99.90;;;;;;5031732;28;20217;-84
2024/01/08 06:23:15;;;;;;;4.30;2.53;;;-3.60;99.90;;;;;;5031715;28;20604;-84
2024/01/08 06:25:41;;;;;;;2.57;1.67;;;-3.60;99.90;;;;;;5031882;28;20197;-84
2024/01/08 06:28:06;;;;;;;4.90;2.70;;;-3.60;99.90;;;;;;5033163;28;20185;-84
2024/01/08 06:30:32;;;;;;;3.63;2.73;;;-3.70;99.90;;;;;;5031492;28;20602;-84
2024/01/08 06:32:57;;;;;;;4.13;2.37;;;-3.70;99.90;;;;;;5032986;28;20184;-84
2024/01/08 06:35:23;;;;;;;3.97;2.53;;;-3.80;99.90;;;;;;5031500;28;20686;-86
2024/01/08 06:37:49;;;;;;;3.87;2.73;;;-3.80;99.90;;;;;;5032650;28;20187;-84
2024/01/08 06:40:15;;;;;;;3.47;2.53;;;-3.80;99.90;;;;;;5031513;28;20221;-84
2024/01/08 06:42:40;;;;;;;3.67;2.70;;;-3.80;99.90;;;;;;5031769;28;20188;-84
2024/01/08 06:45:06;;;;;;;3.53;2.50;;;-3.80;99.90;;;;;;5031781;28;20204;-80
2024/01/08 06:47:32;;;;;;;3.13;2.30;;;-3.80;99.90;;;;;;5032767;28;20239;-81
2024/01/08 06:49:58;;;;;;;4.13;2.70;;;-3.60;1.00;;;;;;5032544;28;20181;-83
2024/01/08 06:52:24;;;;;;;3.73;2.47;;;-3.70;99.90;;;;;;5033197;28;20529;-82
2024/01/08 06:54:49;;;;;;;3.40;2.77;;;-3.90;99.90;;;;;;5031611;28;20254;-83
2024/01/08 06:57:15;;;;;;;6.50;3.83;;;-4.10;1.00;;;;;;5031643;28;20953;-82
2024/01/08 06:59:40;;;;;;;8.90;5.93;;;-4.20;1.00;;;;;;5031864;28;20290;-83
2024/01/08 07:02:06;;;;;;;2.40;1.87;;;-4.30;1.00;;;;;;5030808;28;20172;-82
2024/01/08 07:04:32;;;;;;;7.00;4.40;;;-4.30;1.00;;;;;;5032573;28;20171;-83
2024/01/08 07:06:57;;;;;;;3.83;2.87;;;-4.40;1.00;;;;;;5031297;28;20196;-83
2024/01/08 07:09:23;;;;;;;6.67;4.70;;;-4.40;1.00;;;;;;5031960;28;20187;-82
2024/01/08 07:11:49;;;;;;;4.03;2.93;;;-4.40;23.70;;;;;;5032355;28;20208;-85
2024/01/08 07:14:14;;;;;;;5.83;3.40;;;-4.60;1.00;;;;;;5032725;28;20550;-85
2024/01/08 07:16:40;;;;;;;4.80;3.33;;;-4.60;1.00;;;;;;5031272;28;20439;-82
2024/01/08 07:19:06;;;;;;;3.63;2.80;;;-4.60;1.00;;;;;;5031098;28;20585;-82
2024/01/08 07:21:31;;;;;;;3.60;2.60;;;-4.70;1.00;;;;;;5032052;28;20177;-82
2024/01/08 07:23:58;;;;;;;4.10;3.03;;;-4.70;1.70;;;;;;5031383;28;20167;-82
2024/01/08 07:26:23;;;;;;;4.80;3.00;;;-4.70;1.00;;;;;;5032359;28;20193;-84
2024/01/08 07:28:49;;;;;;;5.33;3.93;;;-4.80;99.90;;;;;;5032186;28;20424;-80
2024/01/08 07:31:17;;;;;;;4.33;2.80;;;-4.80;99.90;;;;;;5029731;28;20233;-84
2024/01/08 07:33:43;;;;;;;4.70;2.93;;;-4.70;99.90;;;;;;5030153;28;20172;-85
2024/01/08 07:36:09;;;;;;;7.90;4.50;;;-4.80;99.90;;;;;;5030032;28;20819;-84
2024/01/08 07:38:35;;;;;;;4.73;2.97;;;-4.90;99.90;;;;;;5030917;28;20180;-85
2024/01/08 07:41:01;;;;;;;7.57;4.07;;;-4.90;53.20;;;;;;5030461;28;20553;-83
2024/01/08 07:43:27;;;;;;;5.77;3.50;;;-4.90;99.90;;;;;;5030872;28;20180;-83
2024/01/08 07:45:53;;;;;;;6.80;4.73;;;-4.90;64.70;;;;;;5030722;28;20682;-83
2024/01/08 07:48:19;;;;;;;11.00;6.03;;;-5.00;99.90;;;;;;5030735;28;20465;-83
2024/01/08 07:50:46;;;;;;;8.20;5.30;;;-5.00;99.90;;;;;;5031818;28;20426;-83
2024/01/08 07:53:11;;;;;;;10.80;6.17;;;-5.00;89.60;;;;;;5031077;28;20410;-84
2024/01/08 07:55:37;;;;;;;13.13;6.67;;;-4.90;97.40;;;;;;5031934;28;20446;-83
2024/01/08 07:58:03;;;;;;;4.50;3.00;;;-5.00;1.00;;;;;;5030663;28;20180;-83
2024/01/08 08:00:29;;;;;;;4.80;3.53;;;-5.00;1.00;;;;;;5030528;28;20303;-83
2024/01/08 08:02:54;;;;;;;6.23;3.53;;;-5.00;1.00;;;;;;5031923;28;20451;-83
2024/01/08 08:05:20;;;;;;;14.57;7.00;;;-5.00;1.00;;;;;;5031702;28;20191;-84
2024/01/08 08:07:46;;;;;;;105.33;33.33;;;-5.10;1.00;;;;;;5028793;28;20190;-85
2024/01/08 08:10:11;;;;;;;35.10;13.00;;;-5.10;1.00;;;;;;5030450;28;20180;-83
2024/01/08 08:12:37;;;;;;;12.90;6.93;;;-5.10;1.00;;;;;;5031125;28;20189;-83
2024/01/08 08:15:03;;;;;;;37.87;13.80;;;-5.00;1.00;;;;;;5028358;28;20183;-83
2024/01/08 08:17:30;;;;;;;35.57;13.20;;;-5.20;1.00;;;;;;5033957;28;20188;-82
2024/01/08 08:19:55;;;;;;;17.43;6.70;;;-5.40;1.00;;;;;;5035104;28;20454;-83
2024/01/08 08:22:21;;;;;;;23.83;10.63;;;-5.40;1.00;;;;;;5034929;28;20445;-82
2024/01/08 08:24:47;;;;;;;39.90;13.80;;;-5.40;1.00;;;;;;5035353;28;20175;-84
2024/01/08 08:27:13;;;;;;;12.47;7.80;;;-5.40;1.00;;;;;;5034281;28;20205;-83
2024/01/08 08:29:41;;;;;;;5.43;3.53;;;-5.30;1.00;;;;;;5034349;28;20511;-84
2024/01/08 08:32:07;;;;;;;6.70;3.83;;;-5.30;1.00;;;;;;5026966;28;20187;-83
2024/01/08 08:34:33;;;;;;;6.07;3.20;;;-5.30;1.00;;;;;;5033958;28;20538;-83
2024/01/08 08:36:59;;;;;;;6.13;3.50;;;-5.30;99.90;;;;;;5033951;28;20294;-83
2024/01/08 08:39:24;;;;;;;6.73;3.73;;;-5.50;1.00;;;;;;5033600;28;20289;-83
2024/01/08 08:41:50;;;;;;;8.87;4.30;;;-5.50;1.00;;;;;;5034882;28;20647;-83
2024/01/08 08:44:16;;;;;;;7.30;3.60;;;-5.50;1.00;;;;;;5035136;28;20233;-84
2024/01/08 08:46:41;;;;;;;7.17;3.23;;;-5.30;1.00;;;;;;5034853;28;20213;-84
2024/01/08 08:49:07;;;;;;;7.03;3.50;;;-5.30;99.90;;;;;;5033787;28;20175;-85
2024/01/08 08:51:36;;;;;;;7.27;4.00;;;-5.30;99.90;;;;;;5033328;28;20240;-84
2024/01/08 08:54:03;;;;;;;6.07;3.43;;;-5.30;1.00;;;;;;5033626;28;20184;-84
2024/01/08 08:56:33;;;;;;;6.60;3.80;;;-5.20;1.00;;;;;;5033166;28;20975;-84
2024/01/08 08:58:59;;;;;;;5.60;3.10;;;-5.30;1.00;;;;;;5033340;28;20575;-84
2024/01/08 09:01:26;;;;;;;7.73;4.20;;;-5.20;1.00;;;;;;5034313;28;20453;-85
2024/01/08 09:03:52;;;;;;;3.87;3.03;;;-5.20;1.00;;;;;;5033442;28;20423;-84
2024/01/08 09:06:20;;;;;;;6.70;3.20;;;-5.20;99.90;;;;;;5033225;28;20815;-84
2024/01/08 09:08:47;;;;;;;6.57;3.27;;;-5.20;99.90;;;;;;5034639;28;20204;-85
2024/01/08 09:11:13;;;;;;;4.93;3.03;;;-5.10;99.90;;;;;;5033109;28;20418;-84
2024/01/08 09:13:38;;;;;;;6.23;2.97;;;-5.10;99.90;;;;;;5021748;28;20458;-84
2024/01/08 09:16:04;;;;;;;7.53;4.00;;;-5.00;99.90;;;;;;5033892;28;20446;-84
2024/01/08 09:18:30;;;;;;;5.90;2.97;;;-5.00;99.90;;;;;;5033416;28;20184;-84
2024/01/08 09:20:55;;;;;;;7.57;3.70;;;-5.00;21.90;;;;;;5034173;28;20317;-84
2024/01/08 09:23:21;;;;;;;7.63;4.33;;;-5.10;53.00;;;;;;5034204;28;20179;-84
2024/01/08 09:25:47;;;;;;;6.57;3.80;;;-5.10;1.00;;;;;;5033611;28;20239;-83
2024/01/08 09:28:13;;;;;;;7.47;4.10;;;-5.30;1.00;;;;;;5025212;28;20419;-84
2024/01/08 09:30:38;;;;;;;9.07;4.20;;;-5.30;55.30;;;;;;5032463;28;20179;-84
2024/01/08 09:33:04;;;;;;;9.80;4.60;;;-5.20;1.00;;;;;;5031715;28;20249;-85
2024/01/08 09:35:30;;;;;;;6.50;4.07;;;-5.30;1.00;;;;;;5033861;28;20294;-83
2024/01/08 09:37:55;;;;;;;7.20;3.97;;;-5.30;1.00;;;;;;5034427;28;20246;-83
2024/01/08 09:40:21;;;;;;;8.70;4.33;;;-5.30;94.40;;;;;;5026225;28;20209;-83
2024/01/08 09:42:52;;;;;;;5.63;3.50;;;-5.20;95.00;;;;;;5031714;28;20175;-83
2024/01/08 09:45:23;;;;;;;6.97;3.67;;;-5.20;11.60;;;;;;5030388;28;20167;-82
2024/01/08 09:47:49;;;;;;;8.27;4.20;;;-5.10;92.60;;;;;;5029554;28;20817;-83
2024/01/08 09:50:16;;;;;;;5.73;4.30;;;-5.10;27.00;;;;;;5027938;28;20435;-84
2024/01/08 09:52:43;;;;;;;6.87;3.40;;;-5.10;1.00;;;;;;5025723;28;20466;-83
2024/01/08 09:55:12;;;;;;;6.33;4.03;;;-5.00;12.20;;;;;;5033945;28;20502;-83
2024/01/08 09:57:38;;;;;;;7.50;4.13;;;-4.80;99.90;;;;;;5025453;28;20429;-83
2024/01/08 10:00:05;;;;;;;8.10;4.23;;;-4.60;1.00;;;;;;5033649;28;20462;-83
2024/01/08 10:02:31;;;;;;;9.50;4.23;;;-4.60;1.00;;;;;;5031497;28;20836;-84
2024/01/08 10:04:57;;;;;;;6.37;3.70;;;-4.40;1.00;;;;;;5027344;28;20416;-83
2024/01/08 10:07:24;;;;;;;9.53;4.70;;;-4.30;1.00;;;;;;5029750;28;20208;-83
2024/01/08 10:09:50;;;;;;;9.60;3.53;;;-4.40;1.00;;;;;;5033407;28;20422;-83
2024/01/08 10:12:16;;;;;;;5.50;3.63;;;-4.30;1.00;;;;;;5031770;28;20418;-84
2024/01/08 10:14:42;;;;;;;6.83;4.50;;;-4.20;1.00;;;;;;5024049;28;20506;-83
2024/01/08 10:17:07;;;;;;;6.87;4.20;;;-4.20;1.00;;;;;;5033246;28;20211;-84
2024/01/08 10:19:33;;;;;;;8.13;4.40;;;-4.00;1.00;;;;;;5033032;28;20249;-83
2024/01/08 10:22:07;;;;;;;9.47;4.83;;;-4.00;1.00;;;;;;5033355;28;20224;-83
2024/01/08 10:24:34;;;;;;;6.73;3.87;;;-4.00;1.00;;;;;;5031938;28;20235;-83
2024/01/08 10:26:59;;;;;;;9.23;4.53;;;-4.00;1.00;;;;;;5032019;28;20441;-83
2024/01/08 10:29:25;;;;;;;9.63;4.43;;;-4.10;1.00;;;;;;5032204;28;20463;-84
2024/01/08 10:31:52;;;;;;;6.43;4.50;;;-4.10;1.00;;;;;;5027296;28;20282;-85
2024/01/08 10:34:19;;;;;;;9.20;4.90;;;-4.00;1.00;;;;;;5020562;28;20432;-84
2024/01/08 10:36:45;;;;;;;9.57;5.73;;;-4.00;1.00;;;;;;5024668;28;20201;-83
2024/01/08 10:39:12;;;;;;;9.37;5.17;;;-4.00;1.00;;;;;;5024341;28;20526;-83
2024/01/08 10:41:38;;;;;;;11.13;5.30;;;-4.00;1.00;;;;;;5031401;28;20183;-82
2024/01/08 10:44:03;;;;;;;22.63;10.47;;;-4.00;1.00;;;;;;5026983;28;20417;-83
2024/01/08 10:46:56;;;;;;;60.93;23.17;;;-4.20;1.00;;;;;;5087874;22;20320;-79
2024/01/08 10:49:36;;;;;;;14.90;7.40;;;-3.80;1.00;;;;;;5033670;28;20223;-79
2024/01/08 10:52:10;;;;;;;15.10;7.57;;;-3.90;1.00;;;;;;5038517;28;20415;-79
2024/01/08 10:54:49;;;;;;;7.97;4.30;;;-4.10;1.00;;;;;;5052040;28;20422;-79
2024/01/08 10:57:17;;;;;;;12.03;6.97;;;-4.00;1.00;;;;;;5037083;28;21013;-79
2024/01/08 10:59:45;;;;;;;8.90;6.00;;;-3.90;1.00;;;;;;5028366;28;21035;-79
2024/01/08 11:02:14;;;;;;;10.03;5.43;;;-3.60;1.00;;;;;;5019140;28;20948;-79
2024/01/08 11:04:46;;;;;;;20.10;11.13;;;-3.50;1.00;;;;;;5020796;28;20433;-79
2024/01/08 11:07:15;;;;;;;10.73;5.83;;;-3.20;1.00;;;;;;5026834;28;20441;-79
2024/01/08 11:09:41;;;;;;;10.53;6.00;;;-3.10;99.90;;;;;;5030796;28;20417;-78
2024/01/08 11:12:10;;;;;;;6.33;4.37;;;-3.20;99.90;;;;;;5013055;28;20533;-80
2024/01/08 11:14:38;;;;;;;7.93;4.90;;;-3.40;99.90;;;;;;5014785;28;20196;-79
2024/01/08 11:17:08;;;;;;;8.60;5.53;;;-3.50;99.90;;;;;;5030892;28;20202;-79
2024/01/08 11:19:47;;;;;;;11.20;7.07;;;-3.60;99.90;;;;;;5030520;28;20495;-79
2024/01/08 11:22:15;;;;;;;8.67;5.13;;;-3.60;99.90;;;;;;5030735;28;20256;-79
2024/01/08 11:24:41;;;;;;;10.87;5.07;;;-3.80;1.00;;;;;;5030645;28;20524;-79
2024/01/08 11:27:07;;;;;;;10.13;6.17;;;-3.40;1.00;;;;;;5028007;28;20433;-79
2024/01/08 11:29:33;;;;;;;8.60;4.67;;;-3.10;1.00;;;;;;5021232;28;20170;-79
2024/01/08 11:32:18;;;;;;;7.80;5.13;;;-2.90;99.90;;;;;;5006157;28;20190;-79
2024/01/08 11:34:56;;;;;;;9.43;4.63;;;-3.00;99.90;;;;;;5009108;28;20190;-79
2024/01/08 11:37:31;;;;;;;9.70;5.60;;;-3.00;99.90;;;;;;5010260;28;20202;-80
2024/01/08 11:40:01;;;;;;;10.80;5.93;;;-2.90;99.90;;;;;;5010512;28;20741;-78
2024/01/08 11:42:26;;;;;;;7.50;4.33;;;-3.00;99.90;;;;;;5010924;28;20659;-78
2024/01/08 11:44:52;;;;;;;8.20;4.77;;;-3.00;99.90;;;;;;5010756;28;20198;-78
2024/01/08 11:47:18;;;;;;;9.30;5.43;;;-3.10;99.90;;;;;;5011245;28;20199;-76
2024/01/08 11:49:44;;;;;;;9.37;6.30;;;-3.30;99.90;;;;;;5016418;28;20179;-80
2024/01/08 11:52:10;;;;;;;10.07;5.23;;;-3.20;99.90;;;;;;5015756;28;20221;-80
2024/01/08 11:54:36;;;;;;;7.70;4.73;;;-2.90;99.90;;;;;;5016584;28;20576;-79
2024/01/08 11:57:05;;;;;;;8.17;5.03;;;-2.60;99.90;;;;;;5015536;28;20732;-80
2024/01/08 11:59:35;;;;;;;8.50;5.57;;;-2.50;99.90;;;;;;5016676;28;20203;-81
2024/01/08 12:02:27;;;;;;;11.00;5.97;;;-2.70;99.90;;;;;;5016117;28;20229;-79
2024/01/08 12:04:57;;;;;;;9.20;5.40;;;-2.70;99.90;;;;;;5014062;28;20214;-80
2024/01/08 12:07:23;;;;;;;8.57;5.37;;;-2.80;99.90;;;;;;5016213;28;20719;-81
2024/01/08 12:09:49;;;;;;;9.27;5.67;;;-2.80;99.90;;;;;;5016047;28;20175;-81
2024/01/08 12:12:20;;;;;;;8.77;4.97;;;-2.50;99.90;;;;;;5016279;28;20214;-79
2024/01/08 12:14:46;;;;;;;8.50;5.57;;;-2.60;99.90;;;;;;5016421;28;20186;-80
2024/01/08 12:17:14;;;;;;;10.60;6.40;;;-2.50;99.90;;;;;;5014594;28;20210;-85
2024/01/08 12:19:46;;;;;;;7.93;5.40;;;-2.60;99.90;;;;;;5014338;28;20206;-83
2024/01/08 12:22:13;;;;;;;10.87;5.73;;;-2.70;99.90;;;;;;5015806;28;20210;-83
2024/01/08 12:24:45;;;;;;;9.50;5.30;;;-2.70;99.90;;;;;;5014468;28;20171;-83
2024/01/08 12:27:14;;;;;;;8.17;5.83;;;-2.40;99.90;;;;;;5015495;28;20562;-83
2024/01/08 12:29:40;;;;;;;9.63;5.80;;;-2.30;99.90;;;;;;5014540;28;20175;-83
2024/01/08 12:32:10;;;;;;;9.90;5.90;;;-2.40;99.90;;;;;;5015618;28;20175;-83
2024/01/08 12:34:37;;;;;;;8.53;5.57;;;-2.70;99.90;;;;;;5015736;28;20175;-83
2024/01/08 12:37:03;;;;;;;12.87;6.43;;;-3.00;99.90;;;;;;5015843;28;20195;-83
2024/01/08 12:39:33;;;;;;;8.03;4.97;;;-3.40;99.90;;;;;;5014201;28;20207;-83
2024/01/08 12:42:20;;;;;;;9.07;5.83;;;-3.50;99.90;;;;;;5013968;28;20178;-83
2024/01/08 12:44:49;;;;;;;10.57;5.30;;;-3.30;99.90;;;;;;5015523;28;20171;-83
2024/01/08 12:47:15;;;;;;;10.83;5.40;;;-3.20;99.90;;;;;;5013780;28;20683;-83